createdAt,value
2024-01-15T00:00:15.188Z,101343.34
2024-01-15T00:01:19.215Z,101335.72
2024-01-15T00:02:23.210Z,101341.38
2024-01-15T00:03:27.556Z,101356.28
2024-01-15T00:04:31.585Z,101346.19
2024-01-15T00:05:35.479Z,101356.06
2024-01-15T00:06:39.779Z,101355.63
2024-01-15T00:07:43.848Z,101364.03
2024-01-15T00:08:47.596Z,101364.03
2024-01-15T00:09:51.357Z,101356.13
2024-01-15T00:10:55.062Z,101368.63
2024-01-15T00:11:58.966Z,101370.97
2024-01-15T00:13:04.624Z,101378.50
2024-01-15T00:14:08.417Z,101346.88
2024-01-15T00:15:12.322Z,101380.06
2024-01-15T00:16:16.093Z,101378.09
2024-01-15T00:17:19.834Z,101380.78
2024-01-15T00:18:23.710Z,101388.75
2024-01-15T00:19:27.623Z,101373.41
2024-01-15T00:20:31.445Z,101384.22
2024-01-15T00:21:35.199Z,101395.63
2024-01-15T00:22:38.960Z,101400.47
2024-01-15T00:23:45.328Z,101400.91
2024-01-15T00:24:49.268Z,101405.00
2024-01-15T00:25:54.204Z,101402.34
2024-01-15T00:26:57.949Z,101402.44
2024-01-15T00:28:03.377Z,101415.38
2024-01-15T00:29:08.372Z,101408.00
2024-01-15T00:30:13.409Z,101412.69
2024-01-15T00:31:19.296Z,101350.31
2024-01-15T00:32:23.463Z,101412.69
2024-01-15T00:33:27.369Z,101411.97
2024-01-15T00:34:31.369Z,101414.75
2024-01-15T00:35:35.193Z,101418.47
2024-01-15T00:36:39.023Z,101421.69
2024-01-15T00:37:42.764Z,101422.63
2024-01-15T00:38:46.800Z,101416.69
2024-01-15T00:39:50.476Z,101422.78
2024-01-15T00:40:54.279Z,101428.38
2024-01-15T00:41:58.026Z,101415.00
2024-01-15T00:43:03.445Z,101428.53
2024-01-15T00:44:07.145Z,101425.69
2024-01-15T00:45:11.971Z,101422.81
2024-01-15T00:46:15.802Z,101383.47
2024-01-15T00:47:21.158Z,101431.03
2024-01-15T00:48:25.109Z,101431.47
2024-01-15T00:49:29.548Z,101431.91
2024-01-15T00:50:33.423Z,101427.00
2024-01-15T00:51:37.284Z,101436.78
2024-01-15T00:52:41.023Z,101426.91
2024-01-15T00:53:44.794Z,101427.75
2024-01-15T00:54:48.614Z,101431.44
2024-01-15T00:55:52.557Z,101421.84
2024-01-15T00:56:56.256Z,101389.16
2024-01-15T00:58:28.292Z,101439.31
2024-01-15T00:59:32.102Z,101427.22
2024-01-15T01:00:35.927Z,101432.34
2024-01-15T01:01:39.721Z,101436.25
2024-01-15T01:02:43.739Z,101438.28
2024-01-15T01:03:47.615Z,101447.00
2024-01-15T01:04:51.497Z,101439.44
2024-01-15T01:05:55.329Z,101448.13
2024-01-15T01:06:59.144Z,101447.25
2024-01-15T01:08:03.072Z,101454.50
2024-01-15T01:09:06.982Z,101448.16
2024-01-15T01:10:11.254Z,101450.28
2024-01-15T01:11:16.043Z,101426.59
2024-01-15T01:12:19.825Z,101353.97
2024-01-15T01:13:23.607Z,101433.72
2024-01-15T01:14:29.042Z,101447.38
2024-01-15T01:15:32.889Z,101448.56
2024-01-15T01:16:36.692Z,101419.16
2024-01-15T01:17:40.671Z,101457.44
2024-01-15T01:18:44.942Z,101446.16
2024-01-15T01:19:49.141Z,101454.28
2024-01-15T01:20:53.099Z,101387.59
2024-01-15T01:21:56.966Z,101460.03
2024-01-15T01:23:00.798Z,101457.22
2024-01-15T01:24:04.674Z,101419.13
2024-01-15T01:25:09.268Z,101464.16
2024-01-15T01:26:16.920Z,101464.94
2024-01-15T01:27:20.744Z,101471.03
2024-01-15T01:28:24.476Z,101472.28
2024-01-15T01:29:29.858Z,101469.75
2024-01-15T01:30:33.746Z,101475.44
2024-01-15T01:31:37.695Z,101467.72
2024-01-15T01:32:41.811Z,101471.41
2024-01-15T01:33:45.810Z,101453.78
2024-01-15T01:34:49.677Z,101476.13
2024-01-15T01:35:53.561Z,101472.63
2024-01-15T01:36:57.253Z,101480.63
2024-01-15T01:38:00.950Z,101484.25
2024-01-15T01:39:04.808Z,101481.59
2024-01-15T01:40:09.797Z,101489.16
2024-01-15T01:41:13.851Z,101478.47
2024-01-15T01:42:17.906Z,101486.94
2024-01-15T01:43:21.630Z,101493.41
2024-01-15T01:44:25.356Z,101491.47
2024-01-15T01:45:30.738Z,101487.09
2024-01-15T01:46:35.316Z,101483.94
2024-01-15T01:47:39.296Z,101492.00
2024-01-15T01:48:43.152Z,101498.03
2024-01-15T01:49:47.907Z,101496.53
2024-01-15T01:50:51.952Z,101497.81
2024-01-15T01:51:58.181Z,101499.03
2024-01-15T01:53:03.256Z,101491.38
2024-01-15T01:54:08.972Z,101497.03
2024-01-15T01:55:13.591Z,101493.81
2024-01-15T01:56:17.582Z,101499.91
2024-01-15T01:57:21.640Z,101499.47
2024-01-15T01:58:25.481Z,101458.16
2024-01-15T01:59:30.599Z,101501.94
2024-01-15T02:00:37.181Z,101498.28
2024-01-15T02:01:41.487Z,101495.78
2024-01-15T02:02:45.406Z,101492.63
2024-01-15T02:03:49.421Z,101499.81
2024-01-15T02:04:53.400Z,101465.69
2024-01-15T02:05:58.157Z,101495.06
2024-01-15T02:07:02.266Z,101494.00
2024-01-15T02:08:06.618Z,101498.28
2024-01-15T02:09:10.774Z,101499.16
2024-01-15T02:10:14.559Z,101501.59
2024-01-15T02:11:18.296Z,101500.13
2024-01-15T02:12:22.094Z,101501.38
2024-01-15T02:13:25.992Z,101497.88
2024-01-15T02:14:29.857Z,101497.50
2024-01-15T02:15:35.361Z,101484.72
2024-01-15T02:16:39.165Z,101505.81
2024-01-15T02:18:00.919Z,101505.34
2024-01-15T02:19:04.834Z,101506.34
2024-01-15T02:20:09.841Z,101502.78
2024-01-15T02:21:13.681Z,101497.25
2024-01-15T02:22:17.480Z,101474.34
2024-01-15T02:23:22.960Z,101505.34
2024-01-15T02:24:27.079Z,101510.94
2024-01-15T02:25:30.860Z,101512.84
2024-01-15T02:26:34.614Z,101506.22
2024-01-15T02:27:38.707Z,101514.28
2024-01-15T02:28:43.285Z,101504.13
2024-01-15T02:29:47.188Z,101519.28
2024-01-15T02:30:50.996Z,101479.72
2024-01-15T02:31:54.971Z,101442.00
2024-01-15T02:32:59.270Z,101518.31
2024-01-15T02:34:03.237Z,101514.97
2024-01-15T02:35:07.347Z,101518.84
2024-01-15T02:36:12.761Z,101477.28
2024-01-15T02:37:16.588Z,101515.41
2024-01-15T02:38:22.030Z,101517.50
2024-01-15T02:39:25.813Z,101510.59
2024-01-15T02:40:29.600Z,101509.88
2024-01-15T02:41:33.332Z,101513.53
2024-01-15T02:42:37.050Z,101502.78
2024-01-15T02:43:40.975Z,101510.56
2024-01-15T02:44:44.642Z,101518.69
2024-01-15T02:45:48.677Z,101513.09
2024-01-15T02:46:52.529Z,101522.66
2024-01-15T02:47:56.477Z,101523.69
2024-01-15T02:49:00.424Z,101518.19
2024-01-15T02:50:04.399Z,101522.16
2024-01-15T02:51:08.217Z,101521.88
2024-01-15T02:52:11.953Z,101523.59
2024-01-15T02:53:15.746Z,101527.72
2024-01-15T02:54:21.197Z,101522.28
2024-01-15T02:55:24.917Z,101523.47
2024-01-15T02:56:28.638Z,101521.63
2024-01-15T02:57:32.382Z,101517.34
2024-01-15T02:58:36.161Z,101518.53
2024-01-15T02:59:39.848Z,101520.44
2024-01-15T03:00:43.708Z,101519.13
2024-01-15T03:01:47.579Z,101520.75
2024-01-15T03:02:53.423Z,101526.25
2024-01-15T03:03:57.259Z,101520.75
2024-01-15T03:05:01.204Z,101519.72
2024-01-15T03:06:05.412Z,101511.38
2024-01-15T03:07:09.155Z,101518.53
2024-01-15T03:08:12.862Z,101520.00
2024-01-15T03:09:16.688Z,101510.09
2024-01-15T03:10:22.260Z,101518.97
2024-01-15T03:11:25.959Z,101515.00
2024-01-15T03:12:29.803Z,101522.03
2024-01-15T03:13:37.183Z,101516.41
2024-01-15T03:14:40.928Z,101511.19
2024-01-15T03:15:45.889Z,101515.91
2024-01-15T03:16:49.701Z,101518.31
2024-01-15T03:17:53.458Z,101516.34
2024-01-15T03:18:57.307Z,101522.78
2024-01-15T03:20:01.504Z,101522.81
2024-01-15T03:21:06.740Z,101511.56
2024-01-15T03:22:10.530Z,101473.50
2024-01-15T03:23:14.283Z,101517.00
2024-01-15T03:24:18.131Z,101515.75
2024-01-15T03:25:23.523Z,101517.84
2024-01-15T03:26:27.266Z,101519.47
2024-01-15T03:27:31.042Z,101513.09
2024-01-15T03:28:34.842Z,101499.03
2024-01-15T03:29:38.600Z,101456.44
2024-01-15T03:30:42.418Z,101510.31
2024-01-15T03:31:46.260Z,101507.63
2024-01-15T03:32:50.109Z,101515.94
2024-01-15T03:33:53.949Z,101512.44
2024-01-15T03:34:57.784Z,101517.28
2024-01-15T03:36:01.868Z,101512.88
2024-01-15T03:37:05.884Z,101509.97
2024-01-15T03:38:09.968Z,101510.06
2024-01-15T03:39:14.309Z,101485.28
2024-01-15T03:40:21.289Z,101463.31
2024-01-15T03:41:28.667Z,101500.34
2024-01-15T03:42:32.560Z,101508.72
2024-01-15T03:43:36.313Z,101504.78
2024-01-15T03:44:40.087Z,101501.44
2024-01-15T03:45:43.902Z,101501.41
2024-01-15T03:46:47.607Z,101501.41
2024-01-15T03:47:51.622Z,101505.81
2024-01-15T03:48:55.644Z,101491.94
2024-01-15T03:49:59.550Z,101488.72
2024-01-15T03:51:03.286Z,101493.19
2024-01-15T03:52:07.633Z,101453.06
2024-01-15T03:53:11.358Z,101496.88
2024-01-15T03:54:16.537Z,101470.47
2024-01-15T03:55:21.370Z,101436.91
2024-01-15T03:56:25.221Z,101481.38
2024-01-15T03:57:30.578Z,101486.88
2024-01-15T03:58:34.321Z,101485.56
2024-01-15T03:59:38.062Z,101488.72
2024-01-15T04:00:41.908Z,101476.28
2024-01-15T04:01:51.428Z,101481.63
2024-01-15T04:02:55.175Z,101462.81
2024-01-15T04:03:58.961Z,101474.88
2024-01-15T04:05:02.760Z,101474.47
2024-01-15T04:06:07.186Z,101451.22
2024-01-15T04:07:11.215Z,101464.09
2024-01-15T04:08:15.152Z,101473.69
2024-01-15T04:09:19.013Z,101456.13
2024-01-15T04:10:22.865Z,101462.13
2024-01-15T04:11:26.613Z,101419.72
2024-01-15T04:12:32.152Z,101444.94
2024-01-15T04:13:35.932Z,101456.69
2024-01-15T04:14:39.640Z,101396.16
2024-01-15T04:15:43.524Z,101461.94
2024-01-15T04:16:47.267Z,101448.75
2024-01-15T04:17:51.089Z,101440.41
2024-01-15T04:18:54.887Z,101414.31
2024-01-15T04:19:58.782Z,101442.44
2024-01-15T04:21:02.584Z,101453.97
2024-01-15T04:22:06.521Z,101418.53
2024-01-15T04:23:10.368Z,101434.34
2024-01-15T04:24:14.252Z,101410.28
2024-01-15T04:25:18.129Z,101436.41
2024-01-15T04:26:21.553Z,101437.97
2024-01-15T04:27:25.408Z,101437.88
2024-01-15T04:28:30.948Z,101429.03
2024-01-15T04:29:36.487Z,101427.47
2024-01-15T04:30:41.663Z,101430.19
2024-01-15T04:31:45.538Z,101431.03
2024-01-15T04:32:49.433Z,101429.03
2024-01-15T04:33:53.354Z,101421.88
2024-01-15T04:34:57.973Z,101427.44
2024-01-15T04:36:04.703Z,101420.56
2024-01-15T04:37:08.391Z,101414.56
2024-01-15T04:38:12.054Z,101409.00
2024-01-15T04:39:15.909Z,101423.50
2024-01-15T04:40:19.727Z,101419.47
2024-01-15T04:41:23.547Z,101419.44
2024-01-15T04:42:27.330Z,101376.94
2024-01-15T04:43:32.725Z,101405.38
2024-01-15T04:44:37.045Z,101407.00
2024-01-15T04:45:40.822Z,101410.53
2024-01-15T04:46:44.557Z,101408.66
2024-01-15T04:47:48.299Z,101399.22
2024-01-15T04:48:52.127Z,101368.38
2024-01-15T04:49:56.094Z,101397.31
2024-01-15T04:50:59.861Z,101396.13
2024-01-15T04:52:03.673Z,101397.72
2024-01-15T04:53:09.134Z,101389.34
2024-01-15T04:54:14.398Z,101390.59
2024-01-15T04:55:18.249Z,101390.56
2024-01-15T04:56:22.005Z,101386.56
2024-01-15T04:57:25.773Z,101393.38
2024-01-15T04:58:31.206Z,101379.00
2024-01-15T04:59:34.948Z,101372.56
2024-01-15T05:00:38.721Z,101365.03
2024-01-15T05:01:42.624Z,101370.25
2024-01-15T05:02:46.509Z,101360.22
2024-01-15T05:03:50.441Z,101358.19
2024-01-15T05:04:54.229Z,101367.03
2024-01-15T05:05:58.133Z,101363.00
2024-01-15T05:07:02.017Z,101362.63
2024-01-15T05:08:06.492Z,101361.00
2024-01-15T05:09:10.235Z,101361.84
2024-01-15T05:10:14.091Z,101325.81
2024-01-15T05:11:17.971Z,101351.13
2024-01-15T05:12:21.768Z,101325.13
2024-01-15T05:13:25.614Z,101349.56
2024-01-15T05:14:31.182Z,101307.94
2024-01-15T05:15:35.039Z,101346.38
2024-01-15T05:16:41.102Z,101347.16
2024-01-15T05:17:44.952Z,101333.97
2024-01-15T05:18:48.864Z,101301.59
2024-01-15T05:19:52.967Z,101317.22
2024-01-15T05:20:56.768Z,101325.19
2024-01-15T05:22:00.555Z,101324.00
2024-01-15T05:23:04.362Z,101326.78
2024-01-15T05:24:08.326Z,101316.78
2024-01-15T05:25:12.084Z,101317.22
2024-01-15T05:26:15.895Z,101312.84
2024-01-15T05:27:19.770Z,101324.03
2024-01-15T05:28:23.568Z,101308.03
2024-01-15T05:29:27.386Z,101302.03
2024-01-15T05:30:32.863Z,101296.84
2024-01-15T05:31:38.607Z,101301.25
2024-01-15T05:32:42.699Z,101291.25
2024-01-15T05:33:46.667Z,101278.47
2024-01-15T05:34:50.592Z,101296.06
2024-01-15T05:35:54.404Z,101291.72
2024-01-15T05:36:58.210Z,101289.28
2024-01-15T05:38:02.070Z,101288.88
2024-01-15T05:39:05.921Z,101272.09
2024-01-15T05:40:10.441Z,101288.06
2024-01-15T05:41:14.153Z,101279.28
2024-01-15T05:42:17.904Z,101280.09
2024-01-15T05:43:21.756Z,101276.94
2024-01-15T05:44:25.432Z,101266.53
2024-01-15T05:45:32.323Z,101220.56
2024-01-15T05:46:36.098Z,101228.53
2024-01-15T05:47:39.935Z,101277.72
2024-01-15T05:48:44.021Z,101271.72
2024-01-15T05:49:47.905Z,101249.72
2024-01-15T05:50:51.745Z,101274.94
2024-01-15T05:51:55.496Z,101267.34
2024-01-15T05:52:59.295Z,101265.75
2024-01-15T05:54:03.267Z,101257.75
2024-01-15T05:55:07.565Z,101259.34
2024-01-15T05:56:12.461Z,101257.75
2024-01-15T05:57:16.307Z,101255.34
2024-01-15T05:58:20.050Z,101243.78
2024-01-15T05:59:23.954Z,101237.78
2024-01-15T06:00:27.795Z,101251.38
2024-01-15T06:01:33.364Z,101239.38
2024-01-15T06:02:37.181Z,101242.16
2024-01-15T06:03:41.163Z,101236.16
2024-01-15T06:04:45.075Z,101235.38
2024-01-15T06:05:48.883Z,101238.97
2024-01-15T06:06:52.673Z,101236.16
2024-01-15T06:07:56.533Z,101228.19
2024-01-15T06:09:00.248Z,101220.19
2024-01-15T06:10:04.120Z,101231.38
2024-01-15T06:11:08.806Z,101214.19
2024-01-15T06:12:12.565Z,101209.81
2024-01-15T06:13:16.323Z,101225.34
2024-01-15T06:14:20.063Z,101224.59
2024-01-15T06:15:24.095Z,101212.16
2024-01-15T06:16:27.958Z,101217.81
2024-01-15T06:17:33.370Z,101211.00
2024-01-15T06:18:37.248Z,101211.81
2024-01-15T06:19:41.185Z,101211.00
2024-01-15T06:20:45.085Z,101211.38
2024-01-15T06:21:48.874Z,101201.38
2024-01-15T06:22:52.589Z,101204.56
2024-01-15T06:23:56.313Z,101204.16
2024-01-15T06:25:00.510Z,101192.19
2024-01-15T06:26:04.259Z,101196.97
2024-01-15T06:27:08.090Z,101199.38
2024-01-15T06:28:12.102Z,101194.59
2024-01-15T06:29:15.838Z,101185.81
2024-01-15T06:30:19.844Z,101186.19
2024-01-15T06:31:23.757Z,101189.00
2024-01-15T06:32:27.685Z,101185.00
2024-01-15T06:33:33.290Z,101183.41
2024-01-15T06:34:37.106Z,101181.81
2024-01-15T06:35:40.938Z,101186.59
2024-01-15T06:36:44.986Z,101173.78
2024-01-15T06:37:48.784Z,101166.19
2024-01-15T06:38:52.546Z,101114.31
2024-01-15T06:39:56.337Z,101175.78
2024-01-15T06:41:00.096Z,101180.97
2024-01-15T06:42:03.861Z,101172.22
2024-01-15T06:43:07.611Z,101173.41
2024-01-15T06:44:11.411Z,101163.81
2024-01-15T06:45:15.231Z,101172.22
2024-01-15T06:46:22.967Z,101166.63
2024-01-15T06:47:26.786Z,101175.44
2024-01-15T06:48:32.283Z,101169.78
2024-01-15T06:49:36.202Z,101166.63
2024-01-15T06:50:39.898Z,101169.41
2024-01-15T06:51:44.715Z,101162.59
2024-01-15T06:52:49.491Z,101143.44
2024-01-15T06:53:53.242Z,101104.69
2024-01-15T06:54:57.065Z,101115.50
2024-01-15T06:56:00.913Z,101155.84
2024-01-15T06:57:04.882Z,101141.84
2024-01-15T06:58:08.586Z,101159.44
2024-01-15T06:59:12.440Z,101111.88
2024-01-15T07:00:17.453Z,101149.81
2024-01-15T07:01:21.425Z,101155.41
2024-01-15T07:02:25.460Z,101157.44
2024-01-15T07:03:29.295Z,101151.41
2024-01-15T07:04:34.723Z,101153.00
2024-01-15T07:05:38.707Z,101152.22
2024-01-15T07:06:42.701Z,101138.63
2024-01-15T07:07:52.610Z,101147.44
2024-01-15T20:02:17.430Z,101169.81
2024-01-15T20:03:21.424Z,101168.56
2024-01-15T20:04:25.181Z,101168.94
2024-01-15T20:05:28.975Z,101170.03
2024-01-15T20:06:32.970Z,101131.88
2024-01-15T20:07:36.949Z,101170.03
2024-01-15T20:08:40.634Z,101176.81
2024-01-15T20:09:44.466Z,101172.00
2024-01-15T20:10:48.237Z,101174.81
2024-01-15T20:11:52.044Z,101170.44
2024-01-15T20:12:55.788Z,101167.53
2024-01-15T20:13:59.745Z,101160.78
2024-01-15T20:15:03.633Z,101166.38
2024-01-15T20:16:11.749Z,101158.72
2024-01-15T20:17:17.392Z,101160.78
2024-01-15T20:18:21.292Z,101160.38
2024-01-15T20:19:25.297Z,101160.44
2024-01-15T20:20:29.156Z,101170.38
2024-01-15T20:21:34.184Z,101132.38
2024-01-15T20:22:37.827Z,101155.59
2024-01-15T20:24:47.980Z,101159.63
2024-01-15T20:25:51.769Z,101156.03
2024-01-15T20:26:55.498Z,101140.38
2024-01-15T20:27:59.194Z,101142.03
2024-01-15T20:29:02.995Z,101146.81
2024-01-15T20:30:07.855Z,101144.81
2024-01-15T20:31:12.092Z,101143.22
2024-01-15T20:32:40.019Z,101148.06
2024-01-15T20:33:44.174Z,101143.72
2024-01-15T20:34:48.156Z,101140.50
2024-01-15T20:35:52.094Z,101140.50
2024-01-15T20:36:56.058Z,101150.41
2024-01-15T20:38:00.078Z,101146.88
2024-01-15T20:39:03.858Z,101144.03
2024-01-15T20:40:18.578Z,101143.66
2024-01-15T20:41:22.388Z,101143.66
2024-01-15T20:42:26.939Z,101141.28
2024-01-15T20:43:30.759Z,101150.03
2024-01-15T20:44:34.528Z,101146.88
2024-01-15T20:45:38.584Z,101151.19
2024-01-15T20:46:42.448Z,101151.56
2024-01-15T20:47:47.971Z,101137.84
2024-01-15T20:48:51.963Z,101145.91
2024-01-15T20:49:55.735Z,101152.59
2024-01-15T20:50:59.731Z,101145.41
2024-01-15T20:52:03.674Z,101147.78
2024-01-15T20:53:07.433Z,101146.22
2024-01-15T20:54:11.265Z,101148.19
2024-01-15T20:55:14.972Z,101145.06
2024-01-15T20:56:18.760Z,101154.94
2024-01-15T20:57:22.606Z,101150.19
2024-01-15T20:58:26.339Z,101145.41
2024-01-15T20:59:30.357Z,101122.84
2024-01-15T21:00:34.115Z,101154.53
2024-01-15T21:01:37.874Z,101154.94
2024-01-15T21:02:41.647Z,101152.97
2024-01-15T21:03:47.169Z,101149.44
2024-01-15T21:04:50.985Z,101150.31
2024-01-15T21:05:54.826Z,101142.31
2024-01-15T21:06:58.676Z,101148.34
2024-01-15T21:08:02.380Z,101141.19
2024-01-15T21:09:13.311Z,101141.97
2024-01-15T21:10:17.072Z,101154.72
2024-01-15T21:11:20.867Z,101149.91
2024-01-15T21:12:45.212Z,101153.63
2024-01-15T21:14:33.725Z,101163.81
2024-01-15T21:15:37.608Z,101159.25
2024-01-15T21:16:41.354Z,101160.78
2024-01-15T21:17:46.711Z,101158.72
2024-01-15T21:18:54.101Z,101157.06
2024-01-15T21:20:08.972Z,101162.31
2024-01-15T21:21:12.868Z,101163.88
2024-01-15T21:22:16.637Z,101161.88
2024-01-15T21:23:20.426Z,101160.66
2024-01-15T21:24:24.135Z,101165.03
2024-01-15T21:25:28.050Z,101167.41
2024-01-15T21:26:31.828Z,101166.59
2024-01-15T21:27:35.537Z,101165.03
2024-01-15T21:28:39.331Z,101134.09
2024-01-15T21:29:43.145Z,101170.63
2024-01-15T21:30:48.467Z,101168.56
2024-01-15T21:31:52.408Z,101178.13
2024-01-15T21:32:56.164Z,101176.47
2024-01-15T21:34:18.962Z,101172.56
2024-01-15T21:35:34.478Z,101175.66
2024-01-15T21:36:39.320Z,101170.09
2024-01-15T21:37:43.353Z,101168.06
2024-01-15T21:38:47.213Z,101169.66
2024-01-15T21:39:51.051Z,101170.47
2024-01-15T21:40:54.796Z,101175.59
2024-01-15T21:41:58.962Z,101175.19
2024-01-15T21:43:02.859Z,101169.56
2024-01-15T21:44:06.813Z,101161.47
2024-01-15T21:45:11.277Z,101146.66
2024-01-15T21:46:15.101Z,101176.38
2024-01-15T21:47:18.881Z,101173.94
2024-01-15T21:48:22.868Z,101170.38
2024-01-15T21:49:28.836Z,101171.97
2024-01-15T21:50:32.597Z,101122.22
2024-01-15T21:51:36.702Z,101140.66
2024-01-15T21:52:40.437Z,101167.53
2024-01-15T21:53:44.328Z,101167.53
2024-01-15T21:54:48.134Z,101167.47
2024-01-15T21:55:51.846Z,101165.16
2024-01-15T21:56:55.529Z,101169.13
2024-01-15T21:57:59.236Z,101134.19
2024-01-15T21:59:03.089Z,101164.38
2024-01-15T22:00:07.803Z,101170.81
2024-01-15T22:01:11.715Z,101171.63
2024-01-15T22:02:27.811Z,101139.94
2024-01-15T22:03:31.749Z,101162.75
2024-01-15T22:04:37.406Z,101169.50
2024-01-15T22:05:41.303Z,101132.63
2024-01-15T22:06:45.180Z,101169.13
2024-01-15T22:07:48.946Z,101173.88
2024-01-15T22:08:52.662Z,101169.13
2024-01-15T22:09:56.503Z,101169.13
2024-01-15T22:11:00.257Z,101170.63
2024-01-15T22:12:05.443Z,101169.13
2024-01-15T22:13:09.241Z,101167.16
2024-01-15T22:14:13.002Z,101170.38
2024-01-15T22:15:16.764Z,101169.13
2024-01-15T22:16:20.453Z,101154.13
2024-01-15T22:17:24.280Z,101172.28
2024-01-15T22:18:29.210Z,101146.50
2024-01-15T22:19:32.988Z,101172.16
2024-01-15T22:20:38.395Z,101171.03
2024-01-15T22:21:44.419Z,101179.81
2024-01-15T22:22:48.157Z,101167.97
2024-01-15T22:23:51.929Z,101169.56
2024-01-15T22:24:55.649Z,101170.25
2024-01-15T22:25:59.458Z,101167.94
2024-01-15T22:27:05.613Z,101135.81
2024-01-15T22:28:10.366Z,101173.88
2024-01-15T22:29:14.258Z,101173.88
2024-01-15T22:30:18.171Z,101173.81
2024-01-15T22:31:21.981Z,101176.28
2024-01-15T22:32:27.119Z,101172.59
2024-01-15T22:33:32.368Z,101161.78
2024-01-15T22:34:36.332Z,101143.66
2024-01-15T22:35:41.810Z,101176.44
2024-01-15T22:36:45.664Z,101176.81
2024-01-15T22:37:49.972Z,101177.19
2024-01-15T22:38:53.962Z,101180.34
2024-01-15T22:39:57.779Z,101122.00
2024-01-15T22:41:01.589Z,101177.44
2024-01-15T22:42:05.836Z,101172.31
2024-01-15T22:43:09.570Z,101182.00
2024-01-15T22:44:13.383Z,101184.78
2024-01-15T22:45:17.888Z,101187.22
2024-01-15T22:46:21.922Z,101186.81
2024-01-15T22:47:25.926Z,101190.28
2024-01-15T22:48:29.991Z,101189.38
2024-01-15T22:49:33.792Z,101191.78
2024-01-15T22:50:37.646Z,101190.06
2024-01-15T22:51:43.100Z,101191.66
2024-01-15T22:52:46.935Z,101199.59
2024-01-15T22:53:51.598Z,101196.00
2024-01-15T22:54:56.101Z,101205.94
2024-01-15T22:56:02.743Z,101201.44
2024-01-15T22:57:06.793Z,101208.19
2024-01-15T22:58:10.658Z,101206.63
2024-01-15T22:59:14.569Z,101201.81
2024-01-15T23:00:18.935Z,101201.81
2024-01-15T23:01:23.311Z,101197.59
2024-01-15T23:02:27.126Z,101208.44
2024-01-15T23:03:31.137Z,101207.28
2024-01-15T23:04:34.866Z,101208.44
2024-01-15T23:05:39.183Z,101209.75
2024-01-15T23:06:45.011Z,101206.19
2024-01-15T23:07:50.532Z,101214.66
2024-01-15T23:08:54.365Z,101213.50
2024-01-15T23:09:58.040Z,101217.53
2024-01-15T23:11:01.814Z,101215.47
2024-01-15T23:12:06.369Z,101216.69
2024-01-15T23:13:10.206Z,101221.88
2024-01-15T23:14:14.065Z,101222.66
2024-01-15T23:15:17.918Z,101215.13
2024-01-15T23:16:21.688Z,101217.53
2024-01-15T23:17:25.642Z,101228.22
2024-01-15T23:18:29.482Z,101232.63
2024-01-15T23:19:33.331Z,101228.56
2024-01-15T23:20:37.065Z,101236.91
2024-01-15T23:21:40.833Z,101212.72
2024-01-15T23:22:46.280Z,101229.50
2024-01-15T23:23:50.001Z,101221.06
2024-01-15T23:24:53.772Z,101240.72
2024-01-15T23:25:57.549Z,101241.91
2024-01-15T23:27:01.301Z,101246.44
2024-01-15T23:28:05.268Z,101243.66
2024-01-15T23:29:09.113Z,101242.84
2024-01-15T23:30:13.338Z,101249.22
2024-01-15T23:31:20.109Z,101247.25
2024-01-15T23:32:23.904Z,101252.44
2024-01-15T23:33:27.729Z,101248.91
2024-01-15T23:34:31.470Z,101252.47
2024-01-15T23:35:35.258Z,101254.91
2024-01-15T23:36:39.062Z,101257.69
2024-01-15T23:37:42.764Z,101255.63
2024-01-15T23:38:48.144Z,101259.22
2024-01-15T23:39:52.896Z,101255.25
2024-01-15T23:40:56.574Z,101248.91
2024-01-15T23:42:00.435Z,101261.25
2024-01-15T23:43:04.242Z,101263.59
2024-01-15T23:44:08.024Z,101255.81
2024-01-15T23:45:11.894Z,101265.78
2024-01-15T23:46:16.135Z,101264.25
2024-01-15T23:47:19.830Z,101269.44
2024-01-15T23:48:23.849Z,101268.28
2024-01-15T23:49:27.765Z,101276.13
2024-01-15T23:50:31.517Z,101270.84
2024-01-15T23:51:35.180Z,101266.13
2024-01-15T23:52:38.866Z,101275.59
2024-01-15T23:53:42.665Z,101260.34
2024-01-15T23:54:48.120Z,101287.88
2024-01-15T23:55:51.854Z,101274.47
2024-01-15T23:56:55.592Z,101281.63
2024-01-15T23:57:59.535Z,101284.41
2024-01-15T23:59:03.398Z,101272.53
